Time;durP1;ratioP1;P1;durP2;ratioP2;P2;SDS_P1;SDS_P2;PMS_P1;PMS_P2;Temp;Humidity;BMP_temperature;BMP_pressure;BME280_temperature;BME280_humidity;BME280_pressure;Samples;Min_cycle;Max_cycle;Signal;HPM_P1;HPM_P2
2023/01/19 00:00:37;;;;;;;11.40;7.18;;;;;;;-8.77;100.00;91818.31;2520784;23;20007;-83
2023/01/19 00:01:38;;;;;;;12.88;7.07;;;;;;;-8.63;100.00;91817.94;2520695;23;20430;-82
2023/01/19 00:02:39;;;;;;;14.93;7.35;;;;;;;-8.62;100.00;91824.63;2520654;23;20413;-83
2023/01/19 00:03:41;;;;;;;14.00;7.57;;;;;;;-8.66;100.00;91827.13;2508999;23;20432;-83
2023/01/19 00:04:42;;;;;;;16.42;7.93;;;;;;;-8.66;100.00;91823.78;2520230;23;20893;-84
2023/01/19 00:05:43;;;;;;;12.70;8.57;;;;;;;-8.69;100.00;91824.41;2532597;23;20385;-83
2023/01/19 00:06:44;;;;;;;13.30;8.50;;;;;;;-8.81;100.00;91822.63;2521092;23;20094;-84
2023/01/19 00:07:45;;;;;;;14.30;8.13;;;;;;;-8.81;100.00;91827.06;2520412;23;20399;-83
2023/01/19 00:08:48;;;;;;;14.32;8.60;;;;;;;-8.85;100.00;91826.19;2532613;23;20825;-83
2023/01/19 00:09:49;;;;;;;14.55;7.90;;;;;;;-8.79;100.00;91830.06;2532492;23;20099;-84
2023/01/19 00:10:50;;;;;;;14.18;9.38;;;;;;;-8.74;100.00;91830.59;2532608;23;20543;-85
2023/01/19 00:11:51;;;;;;;12.57;8.23;;;;;;;-8.71;100.00;91826.59;2532209;23;20013;-83
2023/01/19 00:12:52;;;;;;;13.30;8.25;;;;;;;-8.79;100.00;91828.22;2519993;23;20026;-83
2023/01/19 00:13:53;;;;;;;11.82;7.55;;;;;;;-8.86;100.00;91828.03;2532623;23;20010;-85
2023/01/19 00:14:54;;;;;;;15.15;8.23;;;;;;;-8.83;100.00;91819.59;2532516;23;20033;-85
2023/01/19 00:15:55;;;;;;;16.48;8.98;;;;;;;-9.04;100.00;91829.34;2520641;23;20006;-83
2023/01/19 00:16:56;;;;;;;13.13;7.97;;;;;;;-8.97;100.00;91817.38;2532674;23;20061;-83
2023/01/19 00:17:57;;;;;;;11.27;7.55;;;;;;;-8.99;100.00;91819.53;2519767;23;20928;-82
2023/01/19 00:18:58;;;;;;;13.82;8.45;;;;;;;-9.00;100.00;91822.44;2520419;23;20415;-83
2023/01/19 00:19:58;;;;;;;12.98;8.10;;;;;;;-9.03;100.00;91829.03;2532636;23;20013;-83
2023/01/19 00:20:59;;;;;;;13.23;7.90;;;;;;;-9.09;100.00;91825.16;2532739;23;20679;-83
2023/01/19 00:22:00;;;;;;;13.80;8.25;;;;;;;-9.09;100.00;91819.97;2520410;23;20006;-83
2023/01/19 00:23:03;;;;;;;14.43;8.00;;;;;;;-9.00;100.00;91823.22;2519800;23;20058;-83
2023/01/19 00:24:04;;;;;;;12.15;7.03;;;;;;;-8.97;100.00;91825.13;2532824;23;20406;-83
2023/01/19 00:25:06;;;;;;;13.13;7.68;;;;;;;-9.00;100.00;91825.03;2532661;23;20414;-83
2023/01/19 00:26:07;;;;;;;14.48;7.40;;;;;;;-9.06;100.00;91834.84;2508764;23;20434;-83
2023/01/19 00:27:08;;;;;;;15.55;7.97;;;;;;;-9.11;100.00;91829.91;2533044;23;20393;-85
2023/01/19 00:28:14;;;;;;;11.25;7.03;;;;;;;-9.11;100.00;91829.16;2532188;23;20501;-84
2023/01/19 00:29:15;;;;;;;13.68;7.38;;;;;;;-8.96;100.00;91828.47;2509800;23;20022;-83
2023/01/19 00:30:16;;;;;;;13.23;7.45;;;;;;;-9.01;100.00;91833.88;2520289;23;20410;-86
2023/01/19 00:31:19;;;;;;;14.90;7.82;;;;;;;-9.08;100.00;91833.69;2520264;23;20006;-83
2023/01/19 00:32:20;;;;;;;12.75;7.45;;;;;;;-9.09;100.00;91832.16;2521134;23;20414;-83
2023/01/19 00:33:21;;;;;;;13.77;7.88;;;;;;;-9.02;100.00;91830.53;2532304;23;20413;-84
2023/01/19 00:34:22;;;;;;;12.18;7.43;;;;;;;-9.06;100.00;91834.09;2532358;23;20049;-83
2023/01/19 00:35:23;;;;;;;11.65;7.60;;;;;;;-9.13;100.00;91834.63;2532122;23;20014;-84
2023/01/19 00:36:23;;;;;;;13.52;7.70;;;;;;;-9.19;100.00;91830.78;2544238;23;20488;-84
2023/01/19 00:37:24;;;;;;;14.20;7.55;;;;;;;-9.19;100.00;91836.69;2532881;23;20006;-83
2023/01/19 00:38:26;;;;;;;14.15;7.38;;;;;;;-9.01;100.00;91828.69;2520421;23;20426;-83
2023/01/19 00:39:27;;;;;;;14.05;7.65;;;;;;;-9.01;100.00;91839.06;2520545;23;20038;-85
2023/01/19 00:40:28;;;;;;;14.23;7.53;;;;;;;-9.05;100.00;91838.94;2532038;23;20823;-84
2023/01/19 00:42:48;;;;;;;10.65;7.10;;;;;;;-9.22;100.00;91839.94;2528123;23;20010;-83
2023/01/19 00:43:49;;;;;;;10.15;6.28;;;;;;;-9.23;100.00;91835.09;2520323;23;20334;-84
2023/01/19 00:44:50;;;;;;;9.40;5.82;;;;;;;-9.23;100.00;91837.66;2508692;23;20442;-85
2023/01/19 00:45:52;;;;;;;11.10;7.15;;;;;;;-9.24;100.00;91839.50;2508895;23;20779;-85
2023/01/19 00:46:53;;;;;;;11.52;6.47;;;;;;;-9.28;100.00;91840.47;2508533;23;20415;-84
2023/01/19 00:47:55;;;;;;;11.80;6.50;;;;;;;-9.27;100.00;91834.97;2508560;23;20418;-84
2023/01/19 00:48:56;;;;;;;9.70;6.40;;;;;;;-9.25;100.00;91835.41;2520813;23;20007;-82
2023/01/19 00:49:57;;;;;;;12.00;6.65;;;;;;;-9.24;100.00;91836.16;2544672;23;20400;-84
2023/01/19 00:50:58;;;;;;;13.60;6.93;;;;;;;-9.26;100.00;91840.91;2532526;23;20013;-84
2023/01/19 00:51:59;;;;;;;10.07;6.97;;;;;;;-9.20;100.00;91837.03;2520347;23;20010;-85
2023/01/19 00:53:01;;;;;;;9.93;6.28;;;;;;;-9.19;100.00;91841.13;2520528;23;20399;-84
2023/01/19 00:54:09;;;;;;;10.05;6.53;;;;;;;-9.25;100.00;91832.06;2519722;23;20002;-83
2023/01/19 00:55:12;;;;;;;8.60;5.93;;;;;;;-9.27;100.00;91834.22;2510654;23;20419;-84
2023/01/19 00:56:13;;;;;;;8.80;5.95;;;;;;;-9.28;100.00;91830.13;2509241;23;20426;-84
2023/01/19 00:57:15;;;;;;;7.97;5.85;;;;;;;-9.29;100.00;91839.72;2520611;23;20433;-83
2023/01/19 00:58:16;;;;;;;12.30;6.50;;;;;;;-9.32;100.00;91835.19;2532770;23;20006;-84
2023/01/19 00:59:17;;;;;;;10.77;6.00;;;;;;;-9.34;100.00;91842.53;2532148;23;20390;-84
2023/01/19 01:00:19;;;;;;;11.55;5.93;;;;;;;-9.30;100.00;91840.06;2532284;23;20018;-83
2023/01/19 01:01:20;;;;;;;9.02;5.72;;;;;;;-9.35;100.00;91830.66;2532292;23;20432;-83
2023/01/19 01:02:21;;;;;;;9.90;5.88;;;;;;;-9.34;100.00;91832.19;2520236;23;20402;-85
2023/01/19 01:03:26;;;;;;;9.88;6.30;;;;;;;-9.37;100.00;91840.59;2508609;23;20023;-82
2023/01/19 01:04:27;;;;;;;9.75;5.55;;;;;;;-9.42;100.00;91835.63;2522226;23;20006;-85
2023/01/19 01:05:28;;;;;;;9.43;5.82;;;;;;;-9.44;100.00;91835.19;2544514;23;20432;-83
2023/01/19 01:06:29;;;;;;;10.35;6.78;;;;;;;-9.46;100.00;91840.69;2520250;23;20052;-82
2023/01/19 01:07:39;;;;;;;9.80;6.07;;;;;;;-9.47;100.00;91838.44;2519894;23;20077;-83
2023/01/19 01:08:41;;;;;;;13.07;6.25;;;;;;;-9.38;100.00;91839.84;2534123;23;20062;-82
2023/01/19 01:09:42;;;;;;;9.88;6.15;;;;;;;-9.44;100.00;91840.34;2544658;23;20052;-84
2023/01/19 01:10:43;;;;;;;11.15;6.13;;;;;;;-9.52;100.00;91842.00;2544605;23;20916;-84
2023/01/19 01:11:44;;;;;;;7.72;5.18;;;;;;;-9.49;100.00;91838.75;2532293;23;20005;-82
2023/01/19 01:12:45;;;;;;;6.80;5.47;;;;;;;-9.52;100.00;91841.25;2508020;23;20062;-83
2023/01/19 01:13:46;;;;;;;11.23;5.40;;;;;;;-9.54;100.00;91841.53;2520001;23;20010;-84
2023/01/19 01:14:47;;;;;;;9.15;5.40;;;;;;;-9.56;100.00;91833.38;2544391;23;20946;-83
2023/01/19 01:15:50;;;;;;;8.40;5.57;;;;;;;-9.59;100.00;91844.34;2532511;23;20056;-82
2023/01/19 01:16:51;;;;;;;8.00;5.68;;;;;;;-9.55;100.00;91842.63;2520778;23;20441;-84
2023/01/19 01:17:52;;;;;;;11.60;5.88;;;;;;;-9.51;100.00;91845.31;2519773;23;20433;-82
2023/01/19 01:18:53;;;;;;;11.38;6.18;;;;;;;-9.55;100.00;91844.47;2520328;23;20439;-84
2023/01/19 01:19:54;;;;;;;8.18;5.38;;;;;;;-9.66;100.00;91857.81;2532130;23;20430;-84
2023/01/19 01:21:06;;;;;;;9.65;5.65;;;;;;;-9.70;100.00;91853.59;2532222;23;20006;-82
2023/01/19 01:22:08;;;;;;;9.25;5.50;;;;;;;-9.81;100.00;91853.25;2532387;23;20010;-84
2023/01/19 01:23:09;;;;;;;7.97;5.13;;;;;;;-9.75;100.00;91857.13;2520319;23;20445;-82
2023/01/19 01:24:10;;;;;;;8.48;5.43;;;;;;;-9.71;100.00;91855.41;2519895;23;20437;-84
2023/01/19 01:25:15;;;;;;;7.03;5.00;;;;;;;-9.60;100.00;91852.44;2508134;23;20006;-83
2023/01/19 01:26:16;;;;;;;10.98;5.90;;;;;;;-9.68;100.00;91857.38;2522226;23;20017;-83
2023/01/19 01:27:17;;;;;;;8.63;5.25;;;;;;;-9.72;100.00;91853.16;2520344;23;20414;-83
2023/01/19 01:28:18;;;;;;;7.80;5.53;;;;;;;-9.76;100.00;91850.47;2532512;23;20006;-83
2023/01/19 01:29:19;;;;;;;11.65;5.47;;;;;;;-9.71;100.00;91852.84;2519335;23;20033;-83
2023/01/19 01:30:20;;;;;;;8.48;5.07;;;;;;;-9.72;100.00;91853.91;2520173;23;20038;-85
2023/01/19 01:31:21;;;;;;;9.73;5.30;;;;;;;-9.74;100.00;91863.84;2532542;23;20025;-83
2023/01/19 01:32:22;;;;;;;9.50;5.40;;;;;;;-9.73;100.00;91860.16;2520086;23;20414;-83
2023/01/19 01:33:23;;;;;;;9.45;4.85;;;;;;;-9.72;100.00;91859.09;2532468;23;20061;-83
2023/01/19 01:34:24;;;;;;;9.13;5.60;;;;;;;-9.85;100.00;91862.72;2544421;23;20072;-84
2023/01/19 01:35:25;;;;;;;8.60;5.28;;;;;;;-9.96;100.00;91864.97;2544120;23;20005;-83
2023/01/19 01:36:30;;;;;;;7.47;5.32;;;;;;;-9.91;100.00;91856.25;2544392;23;20008;-83
2023/01/19 01:37:31;;;;;;;9.13;6.00;;;;;;;-9.90;100.00;91868.09;2533430;23;20378;-83
2023/01/19 01:38:32;;;;;;;9.60;5.30;;;;;;;-9.91;100.00;91864.00;2532305;23;20406;-83
2023/01/19 01:39:36;;;;;;;8.18;5.75;;;;;;;-9.94;100.00;91862.81;2532202;23;20726;-83
2023/01/19 01:40:40;;;;;;;10.63;5.53;;;;;;;-9.89;100.00;91867.03;2521527;23;20383;-83
2023/01/19 01:41:41;;;;;;;9.75;5.78;;;;;;;-9.89;100.00;91867.78;2532686;23;20480;-83
2023/01/19 01:42:44;;;;;;;11.27;5.80;;;;;;;-10.00;100.00;91866.69;2544443;23;20409;-84
2023/01/19 01:43:53;;;;;;;11.70;5.97;;;;;;;-10.01;100.00;91865.16;2544654;23;20056;-83
2023/01/19 01:44:57;;;;;;;10.05;6.40;;;;;;;-9.94;100.00;91867.22;2532733;23;20797;-85
2023/01/19 01:45:58;;;;;;;9.82;6.07;;;;;;;-9.91;100.00;91869.19;2545490;23;20009;-83
2023/01/19 01:47:00;;;;;;;12.60;6.32;;;;;;;-9.91;100.00;91874.34;2544685;23;20416;-82
2023/01/19 01:48:07;;;;;;;9.68;6.50;;;;;;;-9.94;100.00;91862.06;2532480;23;20457;-84
2023/01/19 01:49:16;;;;;;;12.93;6.30;;;;;;;-9.85;100.00;91865.31;2533601;23;20378;-83
2023/01/19 01:50:21;;;;;;;8.55;5.68;;;;;;;-9.85;100.00;91857.56;2532182;23;20433;-83
2023/01/19 01:51:25;;;;;;;15.20;6.22;;;;;;;-9.84;100.00;91863.47;2522016;23;20937;-85
2023/01/19 01:52:28;;;;;;;11.05;6.90;;;;;;;-9.82;100.00;91867.25;2532269;23;20508;-85
2023/01/19 01:53:32;;;;;;;12.15;7.10;;;;;;;-9.80;100.00;91861.75;2533053;23;20405;-85
2023/01/19 01:54:33;;;;;;;10.30;6.60;;;;;;;-9.92;100.00;91860.69;2544170;23;20408;-84
2023/01/19 01:55:42;;;;;;;13.73;7.28;;;;;;;-9.86;100.00;91860.47;2520325;23;20485;-83
2023/01/19 01:56:46;;;;;;;9.27;7.00;;;;;;;-9.83;100.00;91868.34;2511917;23;20366;-83
2023/01/19 01:57:56;;;;;;;9.45;6.35;;;;;;;-10.01;100.00;91857.41;2509758;23;19999;-84
2023/01/19 01:58:58;;;;;;;12.30;7.10;;;;;;;-9.77;100.00;91861.13;2521626;23;20461;-82
2023/01/19 02:00:00;;;;;;;12.05;6.32;;;;;;;-9.71;100.00;91859.84;2508808;23;20003;-83
2023/01/19 02:03:49;;;;;;;10.10;6.60;;;;;;;-9.84;100.00;91864.22;2537854;23;20024;-83
2023/01/19 02:04:55;;;;;;;12.70;6.15;;;;;;;-9.81;100.00;91868.00;2519810;23;20402;-85
2023/01/19 02:06:00;;;;;;;12.10;6.68;;;;;;;-9.91;100.00;91861.44;2510452;23;20684;-82
2023/01/19 02:13:47;;;;;;;11.32;6.50;;;;;;;-9.97;100.00;91863.44;2536117;23;20005;-84
2023/01/19 02:14:47;;;;;;;12.43;6.03;;;;;;;-9.84;100.00;91866.81;2532839;23;20040;-84
2023/01/19 02:15:51;;;;;;;14.32;7.22;;;;;;;-10.04;100.00;91865.81;2531848;23;20485;-82
2023/01/19 02:16:52;;;;;;;10.60;6.55;;;;;;;-9.79;100.00;91868.44;2521161;23;20045;-83
2023/01/19 02:17:53;;;;;;;10.45;6.47;;;;;;;-9.87;100.00;91870.06;2532316;23;20406;-85
2023/01/19 02:18:56;;;;;;;11.60;6.32;;;;;;;-9.92;100.00;91865.06;2532191;23;20402;-85
2023/01/19 02:19:58;;;;;;;11.43;6.82;;;;;;;-9.96;100.00;91867.56;2544334;23;20441;-83
2023/01/19 02:21:29;;;;;;;9.38;6.32;;;;;;;-10.15;100.00;91862.09;2532319;23;20444;-85
2023/01/19 02:22:37;;;;;;;10.65;6.25;;;;;;;-10.13;100.00;91861.78;2526176;23;20405;-83
2023/01/19 02:23:49;;;;;;;8.63;6.32;;;;;;;-10.12;100.00;91869.22;2510689;23;20415;-85
2023/01/19 02:24:51;;;;;;;11.43;6.28;;;;;;;-10.05;100.00;91860.94;2512313;23;20569;-83
2023/01/19 02:25:52;;;;;;;14.40;6.95;;;;;;;-9.94;100.00;91862.06;2508871;23;20934;-86
2023/01/19 02:26:54;;;;;;;10.82;6.45;;;;;;;-9.98;100.00;91866.34;2508439;23;20442;-85
2023/01/19 02:27:55;;;;;;;8.75;6.38;;;;;;;-9.99;100.00;91867.44;2520398;23;20414;-85
2023/01/19 02:28:57;;;;;;;12.45;6.80;;;;;;;-10.15;100.00;91868.00;2520056;23;20434;-85
2023/01/19 02:30:02;;;;;;;9.93;5.93;;;;;;;-10.16;100.00;91865.75;2532156;23;20406;-83
2023/01/19 02:31:04;;;;;;;14.13;6.45;;;;;;;-10.12;100.00;91866.63;2521986;23;20481;-85
2023/01/19 02:32:06;;;;;;;8.25;5.93;;;;;;;-10.15;100.00;91862.09;2532121;23;20508;-86
2023/01/19 02:33:07;;;;;;;10.55;5.90;;;;;;;-10.15;100.00;91872.44;2520435;23;20406;-84
2023/01/19 02:34:11;;;;;;;8.00;5.72;;;;;;;-10.18;100.00;91873.84;2532461;23;20390;-84
2023/01/19 02:35:12;;;;;;;10.73;6.10;;;;;;;-10.26;100.00;91872.09;2532234;23;20402;-83
2023/01/19 02:36:15;;;;;;;10.95;5.93;;;;;;;-10.21;100.00;91877.03;2531963;23;20394;-84
2023/01/19 02:37:18;;;;;;;10.70;6.38;;;;;;;-10.23;100.00;91875.84;2532562;23;20501;-83
2023/01/19 02:38:20;;;;;;;9.10;5.70;;;;;;;-10.15;100.00;91875.75;2532515;23;20556;-86
2023/01/19 02:39:49;;;;;;;8.93;6.18;;;;;;;-10.15;100.00;91873.19;2544423;23;21355;-85
2023/01/19 02:40:51;;;;;;;10.77;5.90;;;;;;;-10.13;100.00;91885.81;2538254;23;20447;-85
2023/01/19 02:41:59;;;;;;;9.75;6.05;;;;;;;-10.20;100.00;91875.97;2520309;23;20003;-85
2023/01/19 02:43:01;;;;;;;9.32;5.70;;;;;;;-10.13;100.00;91875.47;2510774;23;20422;-85
2023/01/19 02:44:05;;;;;;;11.40;6.30;;;;;;;-10.08;100.00;91877.84;2508779;23;20743;-85
2023/01/19 02:45:08;;;;;;;10.93;5.25;;;;;;;-10.12;100.00;91879.56;2521286;23;20861;-85
2023/01/19 02:46:09;;;;;;;12.75;6.20;;;;;;;-10.04;100.00;91880.56;2532250;23;20414;-84
2023/01/19 02:47:11;;;;;;;8.75;5.55;;;;;;;-10.06;100.00;91880.84;2532518;23;20402;-84
2023/01/19 02:48:13;;;;;;;9.00;5.88;;;;;;;-10.06;100.00;91877.53;2531938;23;20424;-83
2023/01/19 02:49:14;;;;;;;10.02;5.55;;;;;;;-10.11;100.00;91878.47;2532302;23;20726;-84
2023/01/19 02:50:40;;;;;;;9.05;6.07;;;;;;;-10.08;100.00;91882.25;2532295;23;20409;-83
2023/01/19 02:51:43;;;;;;;9.68;5.22;;;;;;;-10.06;100.00;91880.09;2537346;23;20092;-84
2023/01/19 02:52:44;;;;;;;9.60;5.72;;;;;;;-10.05;100.00;91872.06;2520594;23;20736;-85
2023/01/19 02:53:48;;;;;;;10.15;5.95;;;;;;;-10.08;100.00;91877.09;2508214;23;20416;-85
2023/01/19 02:55:19;;;;;;;9.90;5.65;;;;;;;-10.07;100.00;91881.19;2532698;23;20413;-83
2023/01/19 02:56:48;;;;;;;9.52;5.38;;;;;;;-10.04;100.00;91876.13;2535321;23;20996;-85
2023/01/19 02:58:04;;;;;;;11.88;6.68;;;;;;;-10.23;100.00;91881.75;2537867;23;20753;-84
2023/01/19 02:59:22;;;;;;;8.77;5.30;;;;;;;-10.13;100.00;91877.31;2534656;23;20397;-83
2023/01/19 03:00:56;;;;;;;10.52;6.07;;;;;;;-10.03;100.00;91880.22;2523169;23;20502;-85
2023/01/19 03:02:19;;;;;;;8.85;5.57;;;;;;;-9.98;100.00;91884.44;2521689;23;20398;-83
2023/01/19 03:03:36;;;;;;;8.20;5.05;;;;;;;-10.19;100.00;91887.81;2536540;23;20427;-82
2023/01/19 03:05:05;;;;;;;9.60;5.18;;;;;;;-10.15;100.00;91880.94;2544645;23;20428;-82
2023/01/19 03:06:30;;;;;;;10.73;5.20;;;;;;;-10.10;100.00;91885.16;2543870;23;20512;-84
2023/01/19 03:07:49;;;;;;;11.00;5.38;;;;;;;-10.26;100.00;91879.84;2524593;23;20406;-84
2023/01/19 03:09:16;;;;;;;11.98;6.30;;;;;;;-10.13;100.00;91885.03;2515705;23;20403;-85
2023/01/19 03:10:31;;;;;;;13.50;5.63;;;;;;;-10.17;100.00;91883.09;2518513;23;20430;-84
2023/01/19 03:11:37;;;;;;;8.75;5.22;;;;;;;-10.29;100.00;91883.06;2525333;23;20410;-83
2023/01/19 03:12:38;;;;;;;9.23;5.50;;;;;;;-10.20;100.00;91873.38;2521298;23;20509;-84
2023/01/19 03:13:41;;;;;;;10.68;5.88;;;;;;;-10.22;100.00;91883.28;2532844;23;20975;-83
2023/01/19 03:14:46;;;;;;;10.00;5.60;;;;;;;-10.29;100.00;91874.56;2533369;23;20508;-83
2023/01/19 03:15:53;;;;;;;9.63;5.60;;;;;;;-10.28;100.00;91881.22;2522767;23;20406;-85
2023/01/19 03:17:05;;;;;;;9.18;6.20;;;;;;;-10.28;100.00;91871.66;2534050;23;20409;-83
2023/01/19 03:18:13;;;;;;;10.50;5.97;;;;;;;-10.29;100.00;91879.72;2522979;23;20394;-82
2023/01/19 03:19:26;;;;;;;6.97;5.28;;;;;;;-10.16;100.00;91879.44;2522390;23;20406;-84
2023/01/19 03:20:27;;;;;;;9.27;5.15;;;;;;;-10.23;100.00;91879.19;2525311;23;20422;-83
2023/01/19 03:21:34;;;;;;;10.63;5.35;;;;;;;-10.26;100.00;91871.34;2521032;23;20523;-86
2023/01/19 03:22:35;;;;;;;10.02;5.60;;;;;;;-10.24;100.00;91874.38;2511453;23;20410;-83
2023/01/19 03:23:39;;;;;;;8.23;5.47;;;;;;;-10.08;100.00;91877.84;2520906;23;20699;-84
2023/01/19 03:24:43;;;;;;;9.95;5.90;;;;;;;-9.96;100.00;91880.47;2521255;23;20430;-85
2023/01/19 03:25:48;;;;;;;8.63;5.55;;;;;;;-10.12;100.00;91883.97;2522067;23;20409;-83
2023/01/19 03:26:59;;;;;;;10.32;5.70;;;;;;;-10.27;100.00;91885.31;2521661;23;20440;-84
2023/01/19 03:28:02;;;;;;;7.88;4.97;;;;;;;-10.24;100.00;91882.13;2513266;23;20417;-84
2023/01/19 03:29:06;;;;;;;9.10;5.40;;;;;;;-10.27;100.00;91877.56;2520265;23;20398;-84
2023/01/19 03:30:18;;;;;;;10.18;5.10;;;;;;;-10.26;100.00;91882.44;2521228;23;20445;-83
2023/01/19 03:31:26;;;;;;;9.23;5.32;;;;;;;-10.29;100.00;91877.91;2535335;23;20402;-83
2023/01/19 03:32:35;;;;;;;9.48;5.47;;;;;;;-10.35;100.00;91876.59;2522133;23;20406;-83
2023/01/19 03:33:39;;;;;;;10.60;5.57;;;;;;;-10.15;100.00;91877.59;2512057;23;20434;-84
2023/01/19 03:34:42;;;;;;;9.73;5.25;;;;;;;-9.94;100.00;91880.91;2533930;23;20501;-83
2023/01/19 03:35:49;;;;;;;9.98;5.60;;;;;;;-9.79;100.00;91889.13;2532984;23;20913;-83
2023/01/19 03:36:58;;;;;;;8.88;5.38;;;;;;;-9.57;100.00;91883.56;2534914;23;20405;-83
2023/01/19 03:38:05;;;;;;;6.38;4.70;;;;;;;-9.63;100.00;91883.00;2532501;23;20492;-83
2023/01/19 03:39:08;;;;;;;11.68;5.78;;;;;;;-9.57;100.00;91886.13;2521823;23;20414;-84
2023/01/19 03:40:10;;;;;;;9.90;5.47;;;;;;;-9.39;100.00;91881.56;2521818;23;20416;-83
2023/01/19 03:41:15;;;;;;;10.77;5.97;;;;;;;-9.32;100.00;91875.84;2521437;23;20925;-83
2023/01/19 03:42:17;;;;;;;9.88;5.72;;;;;;;-9.39;100.00;91881.56;2533232;23;20378;-83
2023/01/19 03:43:20;;;;;;;9.88;6.00;;;;;;;-9.20;100.00;91884.34;2520810;23;20730;-82
2023/01/19 03:44:24;;;;;;;10.02;5.13;;;;;;;-9.04;100.00;91879.28;2521681;23;20497;-83
2023/01/19 03:45:25;;;;;;;9.13;5.50;;;;;;;-9.00;100.00;91881.97;2521285;23;20410;-83
2023/01/19 03:46:27;;;;;;;9.35;5.95;;;;;;;-8.91;100.00;91880.78;2509491;23;20933;-84
2023/01/19 03:47:28;;;;;;;8.40;5.90;;;;;;;-8.80;100.00;91877.75;2509281;23;20415;-84
2023/01/19 03:48:30;;;;;;;9.93;5.90;;;;;;;-8.79;100.00;91879.25;2520518;23;20417;-83
2023/01/19 03:49:33;;;;;;;9.10;5.93;;;;;;;-8.68;100.00;91880.34;2520767;23;20586;-84
2023/01/19 03:50:34;;;;;;;9.55;5.38;;;;;;;-8.69;100.00;91883.97;2521807;23;20454;-85
2023/01/19 03:51:37;;;;;;;9.65;5.70;;;;;;;-8.62;100.00;91879.75;2533015;23;20413;-82
2023/01/19 03:52:38;;;;;;;12.10;6.22;;;;;;;-8.64;100.00;91876.75;2532950;23;20468;-84
2023/01/19 03:53:40;;;;;;;8.55;5.85;;;;;;;-8.68;100.00;91881.09;2532728;23;20413;-84
2023/01/19 03:54:42;;;;;;;8.73;6.07;;;;;;;-8.62;100.00;91886.78;2532519;23;20446;-84
2023/01/19 03:55:49;;;;;;;7.35;5.28;;;;;;;-8.59;100.00;91875.78;2520620;23;20489;-83
2023/01/19 03:56:51;;;;;;;7.35;5.30;;;;;;;-8.47;100.00;91882.75;2523211;23;20964;-83
2023/01/19 03:57:52;;;;;;;8.93;4.72;;;;;;;-8.44;100.00;91880.25;2521029;23;20406;-84
2023/01/19 03:58:53;;;;;;;10.93;5.70;;;;;;;-8.46;100.00;91874.66;2520808;23;20917;-83
2023/01/19 03:59:54;;;;;;;9.07;5.22;;;;;;;-8.45;100.00;91880.59;2520481;23;20434;-83
2023/01/19 04:00:55;;;;;;;6.85;5.50;;;;;;;-8.56;100.00;91882.13;2520503;23;20002;-83
2023/01/19 04:01:56;;;;;;;8.27;5.38;;;;;;;-8.65;100.00;91879.66;2520293;23;20972;-82
2023/01/19 04:02:57;;;;;;;8.98;5.28;;;;;;;-8.66;100.00;91881.50;2508943;23;20061;-84
2023/01/19 04:03:58;;;;;;;7.05;5.35;;;;;;;-8.56;100.00;91877.69;2508871;23;20435;-85
2023/01/19 04:04:59;;;;;;;6.88;5.28;;;;;;;-8.58;100.00;91881.72;2509349;23;20015;-87
2023/01/19 04:06:01;;;;;;;8.30;5.43;;;;;;;-8.55;100.00;91878.47;2520804;23;20069;-83
2023/01/19 04:07:02;;;;;;;10.43;5.50;;;;;;;-8.50;100.00;91879.00;2520987;23;20010;-86
2023/01/19 04:08:03;;;;;;;8.95;5.32;;;;;;;-8.44;100.00;91885.44;2508727;23;20407;-83
2023/01/19 04:09:04;;;;;;;8.52;4.90;;;;;;;-8.49;100.00;91880.50;2508592;23;20431;-84
2023/01/19 04:10:11;;;;;;;7.28;4.90;;;;;;;-8.58;100.00;91892.81;2520854;23;20990;-84
2023/01/19 04:11:12;;;;;;;8.05;5.03;;;;;;;-8.52;100.00;91891.50;2521970;23;20406;-85
2023/01/19 04:12:13;;;;;;;6.45;4.97;;;;;;;-8.47;100.00;91880.16;2509040;23;20399;-84
2023/01/19 04:13:14;;;;;;;11.02;5.53;;;;;;;-8.58;100.00;91885.06;2520752;23;20014;-85
2023/01/19 04:14:15;;;;;;;8.25;5.32;;;;;;;-8.57;100.00;91894.31;2532460;23;20010;-84
2023/01/19 04:15:17;;;;;;;7.05;5.45;;;;;;;-8.60;100.00;91881.28;2508571;23;20481;-84
2023/01/19 04:16:19;;;;;;;8.75;5.90;;;;;;;-8.47;100.00;91887.94;2508937;23;20058;-84
2023/01/19 04:17:20;;;;;;;9.10;6.05;;;;;;;-8.45;100.00;91890.97;2521415;23;20980;-83
2023/01/19 04:18:21;;;;;;;9.75;5.88;;;;;;;-8.69;100.00;91889.16;2532669;23;20452;-85
2023/01/19 04:19:22;;;;;;;10.15;6.45;;;;;;;-8.79;100.00;91884.44;2544518;23;20006;-86
2023/01/19 04:20:25;;;;;;;10.32;6.75;;;;;;;-8.71;100.00;91894.69;2532606;23;20002;-85
2023/01/19 04:21:26;;;;;;;9.80;6.53;;;;;;;-8.95;100.00;91885.13;2509880;23;20030;-85
2023/01/19 04:22:29;;;;;;;11.30;6.65;;;;;;;-8.89;100.00;91885.63;2508768;23;20407;-83
2023/01/19 04:23:30;;;;;;;9.63;6.47;;;;;;;-8.88;100.00;91887.13;2509407;23;20415;-83
2023/01/19 04:24:31;;;;;;;10.18;6.10;;;;;;;-9.00;100.00;91890.50;2519834;23;20463;-84
2023/01/19 04:25:32;;;;;;;11.00;6.43;;;;;;;-9.01;100.00;91885.63;2531831;23;20460;-84
2023/01/19 04:26:33;;;;;;;9.85;5.78;;;;;;;-9.05;100.00;91888.13;2520592;23;20006;-82
2023/01/19 04:27:35;;;;;;;11.32;5.78;;;;;;;-9.25;100.00;91887.16;2521048;23;20009;-83
2023/01/19 04:28:36;;;;;;;11.48;6.38;;;;;;;-9.21;100.00;91889.88;2521838;23;20362;-84
2023/01/19 04:29:37;;;;;;;7.15;5.70;;;;;;;-9.31;100.00;91892.84;2521504;23;20426;-84
2023/01/19 04:30:39;;;;;;;8.68;6.25;;;;;;;-9.18;100.00;91892.53;2533066;23;20373;-85
2023/01/19 04:31:40;;;;;;;10.68;6.30;;;;;;;-9.21;100.00;91900.97;2533128;23;20006;-86
2023/01/19 04:32:41;;;;;;;10.57;6.57;;;;;;;-9.30;100.00;91897.72;2521502;23;20803;-82
2023/01/19 04:33:42;;;;;;;8.90;6.32;;;;;;;-9.33;100.00;91905.38;2509948;23;20359;-83
2023/01/19 04:34:43;;;;;;;12.80;6.45;;;;;;;-9.18;100.00;91904.72;2521999;23;20061;-86
2023/01/19 04:35:44;;;;;;;11.98;6.90;;;;;;;-9.28;100.00;91900.72;2534177;23;20021;-85
2023/01/19 04:36:45;;;;;;;14.70;9.18;;;;;;;-9.18;100.00;91895.13;2522401;23;20085;-83
2023/01/19 04:37:47;;;;;;;12.00;8.52;;;;;;;-9.23;100.00;91894.59;2521784;23;20410;-84
2023/01/19 04:38:48;;;;;;;11.90;7.57;;;;;;;-9.22;100.00;91896.88;2521388;23;20485;-83
2023/01/19 04:39:49;;;;;;;8.18;5.93;;;;;;;-9.39;100.00;91904.84;2532900;23;20404;-83
2023/01/19 04:40:51;;;;;;;11.95;6.97;;;;;;;-9.35;100.00;91902.34;2533053;23;20485;-83
2023/01/19 04:41:52;;;;;;;9.52;5.90;;;;;;;-9.36;100.00;91904.16;2533497;23;20010;-84
2023/01/19 04:42:53;;;;;;;11.75;6.78;;;;;;;-9.36;100.00;91899.00;2533489;23;20485;-84
2023/01/19 04:43:54;;;;;;;10.13;6.15;;;;;;;-9.43;100.00;91901.38;2533413;23;20393;-83
2023/01/19 04:44:55;;;;;;;10.73;5.47;;;;;;;-9.42;100.00;91900.28;2520928;23;20053;-83
2023/01/19 04:45:56;;;;;;;9.60;6.13;;;;;;;-9.52;100.00;91905.88;2520864;23;20004;-86
2023/01/19 04:46:57;;;;;;;9.55;6.18;;;;;;;-9.49;100.00;91897.47;2546868;23;20012;-84
2023/01/19 04:47:58;;;;;;;12.95;6.63;;;;;;;-9.49;100.00;91907.81;2545027;23;20005;-83
2023/01/19 04:48:59;;;;;;;14.15;5.95;;;;;;;-9.58;100.00;91907.91;2544218;23;20412;-85
2023/01/19 04:50:00;;;;;;;11.45;6.10;;;;;;;-9.58;100.00;91904.56;2532600;23;20034;-83
2023/01/19 04:51:02;;;;;;;9.25;6.05;;;;;;;-9.54;100.00;91900.28;2520899;23;20057;-84
2023/01/19 04:52:06;;;;;;;13.15;6.65;;;;;;;-9.54;100.00;91895.09;2533293;23;20012;-84
2023/01/19 04:53:07;;;;;;;12.93;6.85;;;;;;;-9.59;100.00;91898.66;2532972;23;20757;-84
2023/01/19 04:54:09;;;;;;;13.68;6.25;;;;;;;-9.58;100.00;91905.31;2532328;23;20418;-85
2023/01/19 04:55:10;;;;;;;8.68;5.72;;;;;;;-9.65;100.00;91902.53;2544686;23;20393;-84
2023/01/19 04:56:11;;;;;;;8.85;5.95;;;;;;;-9.67;100.00;91904.66;2532356;23;20485;-84
2023/01/19 04:57:12;;;;;;;11.18;6.30;;;;;;;-9.73;100.00;91904.13;2520609;23;20374;-85
2023/01/19 04:58:13;;;;;;;10.70;6.97;;;;;;;-9.73;100.00;91906.69;2520665;23;20434;-85
2023/01/19 04:59:14;;;;;;;11.00;6.63;;;;;;;-9.72;100.00;91902.28;2508606;23;20013;-86
2023/01/19 05:00:16;;;;;;;9.20;6.05;;;;;;;-9.54;100.00;91903.59;2520001;23;20330;-86
2023/01/19 05:01:17;;;;;;;10.18;6.30;;;;;;;-9.57;100.00;91901.66;2532312;23;20434;-82
2023/01/19 05:02:18;;;;;;;8.90;5.68;;;;;;;-9.72;100.00;91897.88;2520724;23;20422;-83
2023/01/19 05:03:19;;;;;;;10.20;6.25;;;;;;;-9.68;100.00;91910.91;2532504;23;20912;-85
2023/01/19 05:04:21;;;;;;;8.88;6.25;;;;;;;-9.74;100.00;91905.19;2532328;23;20002;-83